AirNav   TITAN Aviation Fuels
 
 1144 users online  

61IS Jim & Peg Airport
Dwight, Illinois, USA

GOING TO DWIGHT?


FAA INFORMATION EFFECTIVE 01 DECEMBER 2022

Location

FAA Identifier: 61IS
Lat/Long: 41-03-17.1150N 088-23-14.2050W
41-03.285250N 088-23.236750W
41.0547542,-88.3872792
(estimated)
Elevation: 630 ft. / 192 m (estimated)
Variation: 00W (1985)
From city: 2 miles SE of DWIGHT, IL
Time zone: UTC -6 (UTC -5 during Daylight Saving Time)
Zip code: 60420

Airport Operations

Airport use: Private use. Permission required prior to landing
Activation date: 02/1988
Control tower: no
ARTCC: CHICAGO CENTER
FSS: KANKAKEE FLIGHT SERVICE STATION
Attendance: UNATNDD
Wind indicator: yes
Segmented circle: no

Airport Communications

WX AWOS-3 at PNT (13 nm SW): 119.675 (815-844-0923)

Nearby radio navigation aids

VOR radial/distance  VOR name  Freq  Var
PNTr045/21.0PONTIAC VOR/DME109.6003E
JOTr184/29.7JOLIET VOR/DME112.3002E
EONr242/29.9PEOTONE VORTAC113.2002E
RBSr338/30.1ROBERTS VOR/DME116.8002E

Airport Services

Runway Information

Runway 18/36

Dimensions: 2400 x 100 ft. / 732 x 30 m
Surface: turf
RUNWAY 18  RUNWAY 36
Traffic pattern: leftleft
Displaced threshold: no200 ft.

Airport Ownership and Management from official FAA records

Ownership: Privately-owned
Owner: JAMES WATTERS
28695 E 2900 N RD
DWIGHT, IL 60420
Phone 815-228-2540
Manager: JAMES WATTERS
28695 E 2900 N RD
DWIGHT, IL 60420
Phone 815-584-2540

Airport Operational Statistics

Aircraft based on the field: 3
Single engine airplanes: 3
    

Additional Remarks

500' WIND ENERGY TOWER 2.6 S.M. SOUTH OF END OF RWY 36
FOR CD CTC CHICAGO ARTCC AT 630-906-8921.

Instrument Procedures

There are no published instrument procedures at 61IS.

Some nearby airports with instrument procedures:

KPNT - Pontiac Municipal Airport (13 nm SW)
C09 - Morris Municipal Airport-James R. Washburn Field (22 nm N)
KIKK - Greater Kankakee Airport (24 nm E)
KLOT - Lewis University Airport (36 nm N)
C56 - Bult Field Airport (37 nm NE)
 
Loc | Ops | Rwys | IFR | FBO | Links
Com | Nav | Svcs | Stats | Notes
Area around 61IS (Jim & Peg Airport)
 
Road maps at: MapQuest Bing Google
 
Aerial photo
No photo
 
Sectional chart

 
Airport distance calculator
Flying to Jim & Peg Airport? Find the distance to fly.

From to 61IS

Sunrise and sunset
Times for 04-Dec-2022
 Local
(UTC-6)
 Zulu
(UTC)
Morning civil twilight06:3312:33
Sunrise07:0313:03
Sunset16:2422:24
Evening civil twilight16:5522:55

Current date and time
Zulu (UTC)  05-Dec-2022 02:50:59
Local (UTC-6)  04-Dec-2022 20:50:59
 
METAR
KPNT 
14nm SW 
050230Z AUTO 20012KT 10SM CLR 00/M04 A3006 RMK AO2 T00001044
KC09 
23nm N 
050235Z AUTO 21006KT 10SM CLR M03/M07 A3004 RMK AO2 T10271070
KIKK 
24nm E 
050235Z AUTO 21010KT 10SM CLR M01/M07 A3007 RMK AO2 T10061075
TAF
KBMI 
43nm SW 
042300Z 0423/0518 20008KT P6SM SCT250 FM050900 19008KT P6SM SCT150 BKN250 FM051500 19012KT P6SM BKN150
NOTAMs
Click for the latest NOTAMs
NOTAMs are issued by the DoD/FAA and will open in a separate window not controlled by AirNav.

 

 
 

Would you like to see your business listed on this page?

 If your business provides an interesting product or service to pilots, flight crews, aircraft, or users of the Jim & Peg Airport, you should consider listing it here.  To start the listing process, click on the button below
 
Add a business
 

Other Pages about Jim & Peg Airport

Update a link
 
Copyright © AirNav, LLC. All rights reserved. Privacy Policy  Contact